Time;durP1;ratioP1;P1;durP2;ratioP2;P2;SDS_P1;SDS_P2;PMS_P1;PMS_P2;Temp;Humidity;BMP_temperature;BMP_pressure;BME280_temperature;BME280_humidity;BME280_pressure;Samples;Min_cycle;Max_cycle;Signal;HPM_P1;HPM_P2
2021/05/19 00:01:39;;;;;;;12.23;5.88;;;15.80;66.40;;;;;;5073674;28;20043;-62
2021/05/19 00:04:06;;;;;;;9.75;5.20;;;15.80;66.40;;;;;;5072972;28;20037;-62
2021/05/19 00:06:33;;;;;;;11.60;5.40;;;15.70;66.30;;;;;;5073291;28;20043;-61
2021/05/19 00:08:58;;;;;;;8.25;5.72;;;15.80;66.40;;;;;;5073190;28;20036;-62
2021/05/19 00:11:25;;;;;;;8.43;5.30;;;15.70;66.20;;;;;;5073601;28;20028;-62
2021/05/19 00:13:51;;;;;;;9.07;5.47;;;15.70;66.90;;;;;;5073279;28;20068;-62
2021/05/19 00:16:18;;;;;;;8.30;5.50;;;15.60;66.40;;;;;;5072984;28;20028;-62
2021/05/19 00:18:44;;;;;;;9.48;5.22;;;15.60;66.40;;;;;;5073148;28;20035;-61
2021/05/19 00:21:10;;;;;;;9.35;6.07;;;15.60;66.30;;;;;;5073062;28;20036;-62
2021/05/19 00:23:36;;;;;;;8.48;5.57;;;15.50;66.20;;;;;;5072884;28;20025;-62
2021/05/19 00:26:02;;;;;;;10.02;5.88;;;15.50;66.20;;;;;;5072972;28;20040;-62
2021/05/19 00:28:28;;;;;;;8.63;5.88;;;15.40;66.50;;;;;;5073450;28;20027;-62
2021/05/19 00:30:58;;;;;;;9.52;6.47;;;15.40;66.60;;;;;;5072974;28;20025;-62
2021/05/19 00:33:24;;;;;;;8.38;5.72;;;15.40;66.50;;;;;;5071510;28;20115;-62
2021/05/19 00:35:51;;;;;;;10.52;5.78;;;15.30;66.30;;;;;;5071704;28;20032;-62
2021/05/19 00:38:19;;;;;;;9.27;6.60;;;15.30;66.40;;;;;;5072622;28;20021;-62
2021/05/19 00:40:46;;;;;;;10.35;6.13;;;15.20;66.40;;;;;;5073131;28;20028;-62
2021/05/19 00:43:12;;;;;;;13.18;6.05;;;15.20;66.50;;;;;;5072980;28;20111;-62
2021/05/19 00:45:38;;;;;;;8.93;5.72;;;15.20;66.50;;;;;;5071098;28;20507;-62
2021/05/19 00:48:05;;;;;;;8.70;6.07;;;15.20;66.50;;;;;;5071920;28;20033;-62
2021/05/19 00:50:32;;;;;;;8.60;5.57;;;15.10;66.40;;;;;;5071682;28;20411;-61
2021/05/19 00:52:58;;;;;;;12.70;6.20;;;15.10;66.30;;;;;;5072350;28;20020;-62
2021/05/19 00:55:25;;;;;;;6.93;4.63;;;15.10;66.30;;;;;;5071444;28;20032;-62
2021/05/19 00:57:52;;;;;;;20.00;5.00;;;15.00;66.20;;;;;;5072702;28;20483;-62
2021/05/19 01:00:22;;;;;;;7.38;5.28;;;15.00;66.10;;;;;;5070793;28;20043;-62
2021/05/19 01:02:54;;;;;;;14.13;4.70;;;14.90;66.10;;;;;;5071150;28;20044;-62
2021/05/19 01:06:08;;;;;;;6.85;3.90;;;14.90;66.00;;;;;;5070317;28;20028;-62
2021/05/19 01:11:08;;;;;;;5.03;3.40;;;14.80;65.90;;;;;;5072431;28;20415;-61
2021/05/19 01:13:35;;;;;;;8.90;5.43;;;14.80;65.80;;;;;;5071979;28;20479;-62
2021/05/19 01:16:01;;;;;;;7.22;4.85;;;14.80;66.50;;;;;;5072388;28;20560;-62
2021/05/19 01:18:27;;;;;;;11.07;5.00;;;14.70;67.00;;;;;;5072715;28;20024;-62
2021/05/19 01:20:58;;;;;;;7.10;5.00;;;14.60;67.00;;;;;;5071658;28;20090;-62
2021/05/19 01:23:29;;;;;;;9.90;5.32;;;14.60;67.00;;;;;;5072636;28;20035;-62
2021/05/19 01:25:56;;;;;;;7.57;5.05;;;14.60;67.00;;;;;;5071106;28;20379;-61
2021/05/19 01:28:21;;;;;;;9.05;6.03;;;14.60;67.10;;;;;;5070505;28;20085;-61
2021/05/19 01:30:47;;;;;;;7.50;4.80;;;14.50;67.60;;;;;;5071248;28;20431;-62
2021/05/19 01:33:14;;;;;;;7.97;5.28;;;14.50;68.10;;;;;;5072419;28;20025;-62
2021/05/19 01:35:43;;;;;;;7.18;4.88;;;14.50;68.80;;;;;;5070489;28;20051;-62
2021/05/19 01:38:12;;;;;;;11.90;4.05;;;14.40;69.10;;;;;;5072260;28;20020;-62
2021/05/19 01:40:38;;;;;;;13.50;4.63;;;14.40;69.60;;;;;;5070547;28;20057;-62
2021/05/19 01:43:04;;;;;;;36.45;4.60;;;14.30;69.80;;;;;;5070546;28;20082;-62
2021/05/19 01:45:44;;;;;;;19.75;3.75;;;14.30;69.90;;;;;;5071159;28;20155;-62
2021/05/19 01:48:15;;;;;;;32.95;3.83;;;14.30;70.00;;;;;;5070845;28;20106;-62
2021/05/19 01:50:42;;;;;;;18.23;4.50;;;14.20;69.90;;;;;;5071808;28;20044;-61
2021/05/19 01:53:08;;;;;;;13.20;4.65;;;14.20;69.90;;;;;;5072267;28;20029;-61
2021/05/19 01:55:37;;;;;;;6.30;4.20;;;14.20;69.80;;;;;;5071531;28;20158;-61
2021/05/19 01:58:05;;;;;;;7.90;4.25;;;14.20;69.80;;;;;;5070890;28;20032;-61
2021/05/19 02:00:31;;;;;;;5.90;3.28;;;14.10;69.70;;;;;;5071870;28;20547;-61
2021/05/19 02:03:03;;;;;;;2.83;2.10;;;14.20;69.60;;;;;;5071244;28;20187;-62
2021/05/19 02:05:33;;;;;;;6.35;3.10;;;14.10;68.90;;;;;;5070718;28;20062;-61
2021/05/19 02:08:01;;;;;;;4.40;3.08;;;14.10;68.60;;;;;;5070883;28;20039;-61
2021/05/19 02:10:29;;;;;;;4.70;3.08;;;14.10;68.30;;;;;;5062083;28;20476;-61
2021/05/19 02:13:08;;;;;;;3.92;2.88;;;14.10;68.10;;;;;;5070639;28;20033;-61
2021/05/19 02:15:35;;;;;;;4.40;3.33;;;14.10;67.90;;;;;;5070006;28;20480;-62
2021/05/19 02:18:03;;;;;;;5.28;3.42;;;14.00;67.70;;;;;;5072777;28;20058;-62
2021/05/19 02:20:31;;;;;;;8.02;3.40;;;14.10;67.60;;;;;;5075530;28;20048;-62
2021/05/19 02:22:58;;;;;;;4.15;2.80;;;14.00;67.50;;;;;;5073846;28;20041;-62
2021/05/19 02:25:24;;;;;;;5.72;3.25;;;14.00;67.70;;;;;;5075272;28;20025;-62
2021/05/19 02:27:51;;;;;;;4.63;3.03;;;14.00;67.60;;;;;;5075470;28;20399;-62
2021/05/19 02:30:21;;;;;;;8.43;3.55;;;13.90;67.70;;;;;;5073561;28;20025;-62
2021/05/19 02:32:49;;;;;;;6.85;4.28;;;13.90;67.90;;;;;;5074054;28;20056;-62
2021/05/19 02:35:18;;;;;;;9.68;3.85;;;13.90;68.20;;;;;;5075283;28;20021;-62
2021/05/19 02:37:49;;;;;;;5.97;4.05;;;13.90;68.40;;;;;;5073528;28;20518;-62
2021/05/19 02:40:16;;;;;;;6.55;4.00;;;13.90;68.70;;;;;;5075309;28;20029;-61
2021/05/19 02:42:43;;;;;;;7.38;3.90;;;13.80;68.90;;;;;;5075026;28;20040;-61
2021/05/19 02:45:10;;;;;;;24.15;3.58;;;13.70;69.10;;;;;;5073008;28;20020;-62
2021/05/19 02:47:37;;;;;;;12.00;3.58;;;13.70;69.30;;;;;;5075013;28;20028;-62
2021/05/19 02:50:04;;;;;;;55.75;4.13;;;13.70;69.40;;;;;;5075490;28;20077;-61
2021/05/19 02:52:30;;;;;;;64.55;3.55;;;13.70;69.40;;;;;;5074401;28;20036;-62
2021/05/19 02:54:56;;;;;;;19.08;3.38;;;13.70;69.50;;;;;;5075140;28;20028;-61
2021/05/19 02:57:22;;;;;;;52.17;4.30;;;13.60;69.60;;;;;;5075031;28;20480;-62
2021/05/19 02:59:47;;;;;;;20.08;3.67;;;13.70;69.70;;;;;;5074090;28;20491;-62
2021/05/19 03:02:13;;;;;;;7.15;3.58;;;13.60;69.60;;;;;;5074981;28;20059;-62
2021/05/19 03:04:39;;;;;;;11.73;3.55;;;13.60;69.60;;;;;;5074927;28;20029;-61
2021/05/19 03:07:05;;;;;;;5.07;3.40;;;13.60;69.60;;;;;;5074311;28;20039;-61
2021/05/19 03:09:30;;;;;;;5.78;3.55;;;13.60;69.70;;;;;;5074795;28;20036;-61
2021/05/19 03:11:56;;;;;;;6.75;3.40;;;13.60;69.70;;;;;;5074118;28;20059;-62
2021/05/19 03:14:22;;;;;;;4.80;3.13;;;13.60;69.90;;;;;;5074821;28;20025;-62
2021/05/19 03:16:48;;;;;;;5.13;3.50;;;13.60;70.00;;;;;;5074654;28;20020;-62
2021/05/19 03:19:13;;;;;;;3.70;2.60;;;13.60;70.10;;;;;;5072807;28;20083;-62
2021/05/19 03:21:39;;;;;;;4.25;3.13;;;13.60;70.20;;;;;;5074342;28;20123;-61
2021/05/19 03:24:05;;;;;;;5.60;3.22;;;13.60;70.30;;;;;;5074614;28;20105;-61
2021/05/19 03:26:32;;;;;;;4.65;2.70;;;13.50;70.30;;;;;;5072467;28;20053;-62
2021/05/19 03:28:58;;;;;;;5.65;2.90;;;13.50;70.30;;;;;;5073786;28;20108;-61
2021/05/19 03:31:23;;;;;;;6.25;3.58;;;13.50;70.40;;;;;;5074615;28;20140;-62
2021/05/19 03:33:49;;;;;;;5.00;3.30;;;13.50;70.50;;;;;;5073531;28;20021;-61
2021/05/19 03:36:15;;;;;;;5.68;3.38;;;13.50;70.50;;;;;;5074541;28;20032;-61
2021/05/19 03:38:41;;;;;;;7.70;3.80;;;13.50;70.70;;;;;;5074514;28;20032;-62
2021/05/19 03:41:07;;;;;;;5.35;3.13;;;13.50;70.80;;;;;;5073366;28;20040;-62
2021/05/19 03:43:34;;;;;;;8.38;3.50;;;13.60;71.00;;;;;;5074259;28;20030;-62
2021/05/19 03:46:01;;;;;;;5.88;3.65;;;13.50;71.10;;;;;;5074075;28;20543;-61
2021/05/19 03:48:30;;;;;;;6.20;3.78;;;13.50;71.20;;;;;;5073294;28;20054;-61
2021/05/19 03:50:56;;;;;;;5.28;3.65;;;13.50;71.30;;;;;;5073912;28;20120;-61
2021/05/19 03:53:22;;;;;;;9.00;4.50;;;13.50;71.30;;;;;;5074071;28;20031;-61
2021/05/19 03:55:48;;;;;;;8.27;3.75;;;13.50;71.50;;;;;;5073024;28;20462;-62
2021/05/19 03:58:14;;;;;;;8.48;3.40;;;13.50;71.60;;;;;;5073901;28;20032;-62
2021/05/19 04:00:41;;;;;;;7.15;3.85;;;13.50;71.70;;;;;;5073620;28;20460;-61
2021/05/19 04:03:07;;;;;;;7.63;3.90;;;13.50;71.80;;;;;;5072837;28;20055;-62
2021/05/19 04:05:36;;;;;;;9.88;4.28;;;13.50;71.90;;;;;;5073701;28;20029;-62
2021/05/19 04:08:04;;;;;;;8.13;4.63;;;13.60;72.10;;;;;;5073721;28;20032;-61
2021/05/19 04:10:34;;;;;;;8.52;4.07;;;13.50;72.20;;;;;;5073382;28;20025;-61
2021/05/19 04:13:04;;;;;;;6.93;4.07;;;13.50;72.30;;;;;;5073620;28;20039;-61
2021/05/19 04:15:29;;;;;;;9.15;4.65;;;13.50;72.30;;;;;;5073178;28;20081;-62
2021/05/19 04:17:55;;;;;;;7.03;4.22;;;13.50;72.30;;;;;;5073291;28;20116;-62
2021/05/19 04:20:21;;;;;;;6.50;4.00;;;13.50;72.40;;;;;;5073326;28;20056;-62
2021/05/19 04:22:47;;;;;;;7.13;4.45;;;13.50;72.50;;;;;;5072748;28;20040;-61
2021/05/19 04:25:14;;;;;;;7.65;4.65;;;13.50;72.60;;;;;;5072902;28;20025;-62
2021/05/19 04:27:40;;;;;;;7.50;4.72;;;13.50;72.70;;;;;;5073275;28;20495;-62
2021/05/19 04:30:08;;;;;;;10.48;4.43;;;13.50;72.80;;;;;;5072516;28;20029;-61
2021/05/19 04:32:36;;;;;;;11.80;4.93;;;13.40;72.80;;;;;;5073286;28;20039;-61
2021/05/19 04:35:04;;;;;;;8.18;4.72;;;13.50;73.00;;;;;;5072917;28;20070;-61
2021/05/19 04:37:30;;;;;;;7.65;4.60;;;13.40;73.10;;;;;;5072426;28;20025;-61
2021/05/19 04:39:58;;;;;;;13.48;4.60;;;13.50;73.30;;;;;;5072609;28;20036;-62
2021/05/19 04:42:24;;;;;;;7.75;4.50;;;13.40;73.20;;;;;;5072569;28;20025;-61
2021/05/19 04:44:50;;;;;;;5.93;4.07;;;13.40;73.30;;;;;;5071789;28;20028;-62
2021/05/19 04:47:15;;;;;;;8.13;4.57;;;13.50;73.40;;;;;;5072336;28;20054;-62
2021/05/19 04:49:41;;;;;;;8.18;4.55;;;13.50;73.50;;;;;;5072396;28;20050;-61
2021/05/19 04:52:07;;;;;;;8.40;4.90;;;13.40;73.70;;;;;;5071487;28;20027;-62
2021/05/19 04:54:34;;;;;;;9.70;5.25;;;13.40;74.00;;;;;;5072237;28;20425;-61
2021/05/19 04:57:00;;;;;;;8.38;5.20;;;13.40;74.00;;;;;;5072299;28;20028;-61
2021/05/19 04:59:26;;;;;;;12.00;5.18;;;13.50;74.20;;;;;;5063673;28;20040;-62
2021/05/19 05:01:51;;;;;;;8.07;5.07;;;13.50;74.20;;;;;;5071959;28;20044;-61
2021/05/19 05:04:17;;;;;;;10.07;4.85;;;13.50;74.40;;;;;;5066753;28;20131;-62
2021/05/19 05:06:43;;;;;;;8.05;4.95;;;13.60;74.60;;;;;;5065093;28;20040;-62
2021/05/19 05:09:11;;;;;;;9.07;5.18;;;13.60;74.60;;;;;;5062967;28;20067;-62
2021/05/19 05:11:37;;;;;;;8.88;5.00;;;13.60;74.70;;;;;;5071599;28;20060;-62
2021/05/19 05:14:03;;;;;;;10.23;5.20;;;13.60;74.70;;;;;;5060267;28;20036;-62
2021/05/19 05:16:28;;;;;;;8.75;5.07;;;13.70;74.80;;;;;;5056694;28;20093;-62
2021/05/19 05:18:54;;;;;;;10.35;5.05;;;13.60;74.80;;;;;;5060742;28;20029;-63
2021/05/19 05:21:20;;;;;;;10.32;4.35;;;13.70;74.80;;;;;;5061881;28;20024;-63
2021/05/19 05:23:45;;;;;;;11.40;4.80;;;13.70;75.30;;;;;;5069648;28;20449;-62
2021/05/19 05:26:11;;;;;;;9.13;4.72;;;13.70;74.60;;;;;;5052541;28;20040;-62
2021/05/19 05:28:37;;;;;;;10.32;5.03;;;13.60;74.60;;;;;;5059419;28;20038;-61
2021/05/19 05:31:02;;;;;;;10.73;5.40;;;13.60;74.60;;;;;;5063098;28;20582;-61
2021/05/19 05:33:28;;;;;;;11.32;5.72;;;13.60;74.60;;;;;;5061934;28;20464;-62
2021/05/19 05:35:54;;;;;;;13.63;5.30;;;13.60;74.60;;;;;;5060492;28;20045;-61
2021/05/19 05:38:19;;;;;;;9.65;5.28;;;13.60;74.80;;;;;;5060991;28;20024;-61
2021/05/19 05:40:45;;;;;;;10.32;5.78;;;13.60;75.10;;;;;;5059280;28;20106;-62
2021/05/19 05:43:11;;;;;;;8.10;5.60;;;13.60;75.20;;;;;;5051046;28;20037;-61
2021/05/19 05:45:37;;;;;;;13.65;6.47;;;13.60;75.30;;;;;;5054717;28;20036;-63
2021/05/19 05:48:03;;;;;;;14.65;6.10;;;13.70;75.40;;;;;;5052898;28;20025;-61
2021/05/19 05:50:30;;;;;;;13.27;6.82;;;13.70;75.60;;;;;;5054062;28;20063;-62
2021/05/19 05:52:55;;;;;;;11.68;6.20;;;13.70;76.00;;;;;;5055065;28;20562;-63
2021/05/19 05:55:21;;;;;;;12.07;7.05;;;13.70;76.00;;;;;;5058837;28;20033;-63
2021/05/19 05:57:50;;;;;;;13.90;5.95;;;13.80;76.20;;;;;;5055275;28;20063;-63
2021/05/19 06:00:17;;;;;;;15.45;7.30;;;13.80;76.30;;;;;;5054925;28;20033;-65
2021/05/19 06:02:43;;;;;;;13.52;7.60;;;13.80;76.30;;;;;;5061868;28;20563;-64
2021/05/19 06:05:10;;;;;;;12.00;6.38;;;13.90;76.60;;;;;;5065529;28;20121;-64
2021/05/19 06:07:36;;;;;;;14.85;6.82;;;13.90;76.40;;;;;;5060371;28;20037;-64
2021/05/19 06:10:03;;;;;;;11.60;6.47;;;13.90;76.60;;;;;;5056917;28;20083;-64
2021/05/19 06:12:28;;;;;;;12.13;7.15;;;13.90;76.60;;;;;;5058558;28;20033;-63
2021/05/19 06:14:54;;;;;;;11.93;7.03;;;13.90;76.60;;;;;;5072433;28;20028;-64
2021/05/19 06:17:20;;;;;;;13.88;7.07;;;14.00;76.40;;;;;;5069246;28;20480;-62
2021/05/19 06:19:46;;;;;;;14.25;7.32;;;14.00;76.60;;;;;;5072349;28;20079;-62
2021/05/19 06:22:11;;;;;;;16.63;8.02;;;14.00;76.50;;;;;;5069765;28;20079;-62
2021/05/19 06:24:43;;;;;;;13.52;9.05;;;14.00;76.50;;;;;;5058864;28;20090;-62
2021/05/19 06:27:09;;;;;;;12.27;8.10;;;14.00;76.80;;;;;;5064234;28;20345;-62
2021/05/19 06:29:35;;;;;;;14.43;8.60;;;14.00;76.90;;;;;;5054794;28;20024;-62
2021/05/19 06:32:00;;;;;;;16.98;8.75;;;14.10;76.80;;;;;;5055790;28;20488;-63
2021/05/19 06:34:26;;;;;;;15.05;7.43;;;14.10;76.90;;;;;;5054694;28;20029;-63
2021/05/19 06:36:52;;;;;;;14.10;8.98;;;14.10;76.30;;;;;;5055940;28;20120;-62
2021/05/19 06:39:22;;;;;;;21.08;8.63;;;14.10;76.70;;;;;;5056471;28;20021;-60
2021/05/19 06:41:50;;;;;;;15.40;7.55;;;14.20;77.00;;;;;;5058931;28;20076;-60
2021/05/19 06:44:16;;;;;;;14.00;9.13;;;14.20;76.70;;;;;;5063979;28;20099;-60
2021/05/19 06:46:43;;;;;;;15.48;8.23;;;14.30;76.90;;;;;;5060659;28;20061;-60
2021/05/19 06:49:10;;;;;;;13.85;8.50;;;14.30;76.90;;;;;;5065545;28;20048;-60
2021/05/19 06:51:36;;;;;;;11.00;7.75;;;14.30;76.80;;;;;;5060271;28;20114;-62
2021/05/19 06:54:02;;;;;;;17.55;8.07;;;14.30;76.40;;;;;;5063483;28;20071;-62
2021/05/19 06:56:27;;;;;;;11.45;6.50;;;14.40;76.20;;;;;;5062693;28;20025;-60
2021/05/19 06:58:54;;;;;;;7.93;4.75;;;14.30;76.00;;;;;;5060582;28;20025;-60
2021/05/19 07:01:20;;;;;;;12.38;7.47;;;14.30;75.30;;;;;;5064352;28;20024;-60
2021/05/19 07:03:49;;;;;;;12.32;5.95;;;14.30;75.30;;;;;;5058903;28;20079;-60
2021/05/19 07:06:16;;;;;;;15.07;7.80;;;14.20;75.00;;;;;;5064864;28;20027;-61
2021/05/19 07:08:41;;;;;;;7.97;3.72;;;14.20;75.20;;;;;;5060387;28;20033;-60
2021/05/19 07:11:07;;;;;;;6.93;3.45;;;14.20;74.80;;;;;;5063304;28;20517;-60
2021/05/19 07:13:33;;;;;;;11.25;6.05;;;14.10;74.70;;;;;;5061419;28;20029;-60
2021/05/19 07:16:01;;;;;;;17.55;6.55;;;14.10;75.10;;;;;;5061558;28;20057;-60
2021/05/19 07:18:27;;;;;;;13.05;8.10;;;14.10;75.20;;;;;;5065022;28;20547;-60
2021/05/19 07:20:55;;;;;;;14.88;7.78;;;14.10;75.40;;;;;;5074774;28;20029;-59
2021/05/19 07:23:21;;;;;;;17.75;7.50;;;14.10;75.50;;;;;;5074578;28;20100;-60
2021/05/19 07:25:47;;;;;;;18.10;8.70;;;14.10;75.40;;;;;;5073779;28;20040;-60
2021/05/19 07:28:13;;;;;;;12.63;8.32;;;14.10;75.40;;;;;;5074385;28;20032;-59
2021/05/19 07:30:40;;;;;;;15.23;8.82;;;14.20;75.50;;;;;;5074425;28;20070;-60
2021/05/19 07:33:06;;;;;;;17.10;9.35;;;14.20;75.80;;;;;;5073835;28;20397;-60
2021/05/19 07:35:32;;;;;;;17.50;11.07;;;14.20;76.00;;;;;;5074147;28;20082;-60
2021/05/19 07:37:58;;;;;;;18.88;10.82;;;14.20;76.40;;;;;;5074435;28;20033;-60
2021/05/19 07:40:24;;;;;;;19.17;10.15;;;14.30;76.80;;;;;;5073420;28;20468;-60
2021/05/19 07:42:50;;;;;;;16.33;8.98;;;14.30;76.80;;;;;;5074151;28;20085;-60
2021/05/19 07:45:16;;;;;;;17.55;8.52;;;14.40;76.60;;;;;;5074250;28;20029;-60
2021/05/19 07:47:42;;;;;;;19.58;9.90;;;14.50;76.10;;;;;;5073598;28;20115;-60
2021/05/19 07:50:09;;;;;;;18.27;10.32;;;14.50;76.30;;;;;;5074131;28;20115;-60
2021/05/19 07:52:35;;;;;;;24.42;12.13;;;14.50;76.40;;;;;;5074014;28;20024;-60
2021/05/19 07:55:04;;;;;;;20.05;8.82;;;14.60;76.40;;;;;;5073378;28;20043;-60
2021/05/19 07:57:43;;;;;;;16.50;9.70;;;14.60;75.70;;;;;;5073729;28;20028;-60
2021/05/19 08:00:14;;;;;;;17.33;9.95;;;14.60;75.50;;;;;;5073788;28;20025;-60
2021/05/19 08:02:41;;;;;;;18.58;10.07;;;14.70;75.80;;;;;;5073085;28;20071;-59
2021/05/19 08:05:07;;;;;;;17.05;9.95;;;14.70;75.80;;;;;;5073773;28;20086;-60
2021/05/19 08:07:36;;;;;;;21.35;12.32;;;14.70;75.60;;;;;;5072986;28;20066;-60
2021/05/19 08:10:02;;;;;;;23.20;11.82;;;14.80;76.60;;;;;;5073564;28;20066;-60
2021/05/19 08:12:28;;;;;;;15.38;7.65;;;14.90;76.90;;;;;;5073386;28;20526;-60
2021/05/19 08:14:54;;;;;;;14.93;7.68;;;14.90;75.70;;;;;;5072728;28;20024;-60
2021/05/19 08:17:19;;;;;;;17.27;8.68;;;15.00;75.40;;;;;;5073603;28;20024;-60
2021/05/19 08:19:46;;;;;;;18.35;9.65;;;15.00;75.50;;;;;;5073192;28;20050;-60
2021/05/19 08:22:13;;;;;;;12.18;6.72;;;15.00;75.70;;;;;;5072623;28;20051;-60
2021/05/19 08:24:42;;;;;;;25.73;12.68;;;15.00;75.60;;;;;;5073389;28;20111;-60
2021/05/19 08:27:08;;;;;;;22.58;11.02;;;15.00;76.00;;;;;;5073383;28;20098;-60
2021/05/19 08:29:34;;;;;;;39.80;9.93;;;15.00;76.00;;;;;;5072726;28;20471;-60
2021/05/19 08:32:00;;;;;;;17.80;12.13;;;15.00;76.10;;;;;;5073157;28;20032;-60
2021/05/19 08:34:25;;;;;;;11.75;6.60;;;15.00;76.30;;;;;;5073312;28;20506;-60
2021/05/19 08:36:52;;;;;;;23.58;11.57;;;15.10;76.30;;;;;;5072340;28;20115;-60
2021/05/19 08:39:21;;;;;;;19.30;10.07;;;15.10;76.30;;;;;;5073183;28;20434;-60
2021/05/19 08:41:50;;;;;;;16.50;9.02;;;15.10;76.10;;;;;;5072904;28;20177;-62
2021/05/19 08:44:19;;;;;;;10.65;6.45;;;15.20;76.10;;;;;;5072078;28;20055;-62
2021/05/19 08:46:48;;;;;;;11.85;7.15;;;15.20;76.10;;;;;;5072873;28;20139;-62
2021/05/19 08:49:16;;;;;;;12.57;7.25;;;15.20;76.30;;;;;;5063580;28;20491;-62
2021/05/19 08:51:43;;;;;;;18.58;11.38;;;15.30;76.30;;;;;;5063934;28;20391;-64
2021/05/19 08:54:09;;;;;;;12.38;6.68;;;15.30;76.40;;;;;;5069325;28;20036;-62
2021/05/19 08:56:46;;;;;;;8.63;4.20;;;15.30;76.30;;;;;;5070620;28;20035;-62
2021/05/19 08:59:12;;;;;;;16.95;8.32;;;15.40;76.30;;;;;;5069002;28;20035;-62
2021/05/19 09:01:41;;;;;;;12.85;6.80;;;15.40;76.40;;;;;;5071072;28;20043;-62
2021/05/19 09:04:14;;;;;;;21.15;11.27;;;15.40;76.30;;;;;;5068277;28;20587;-62
2021/05/19 09:06:40;;;;;;;6.30;3.25;;;15.50;76.70;;;;;;5071057;28;20044;-62
2021/05/19 09:09:39;;;;;;;17.30;10.63;;;15.50;76.40;;;;;;5069323;28;20146;-62
2021/05/19 09:12:10;;;;;;;18.92;10.73;;;15.50;76.00;;;;;;5066916;28;20167;-63
2021/05/19 09:14:37;;;;;;;16.35;7.95;;;15.60;76.20;;;;;;5070759;28;20029;-62
2021/05/19 09:17:29;;;;;;;16.92;10.73;;;15.70;75.90;;;;;;5056988;28;20033;-62
2021/05/19 09:20:12;;;;;;;10.88;5.82;;;15.80;75.50;;;;;;5068276;28;20032;-62
2021/05/19 09:22:45;;;;;;;11.10;3.80;;;15.90;75.50;;;;;;5072466;28;20128;-61
2021/05/19 09:25:20;;;;;;;19.08;9.82;;;16.00;75.50;;;;;;5071511;28;20480;-64
2021/05/19 09:27:49;;;;;;;19.00;9.15;;;15.90;75.60;;;;;;5072000;28;20029;-64
2021/05/19 09:30:15;;;;;;;19.67;11.48;;;16.00;75.30;;;;;;5072177;28;20104;-64
2021/05/19 09:32:43;;;;;;;25.58;13.00;;;16.10;74.80;;;;;;5067138;28;20047;-62
2021/05/19 09:35:11;;;;;;;30.35;16.88;;;16.20;75.00;;;;;;5070528;28;20058;-62
2021/05/19 09:37:37;;;;;;;30.05;12.95;;;16.30;74.60;;;;;;5060347;28;20051;-61
2021/05/19 09:40:06;;;;;;;18.10;10.63;;;16.40;74.30;;;;;;5056988;28;20021;-62
2021/05/19 09:42:35;;;;;;;31.55;15.38;;;16.50;73.70;;;;;;5069766;28;20069;-63
2021/05/19 09:45:19;;;;;;;16.42;9.48;;;16.60;73.60;;;;;;5067740;28;20039;-70
2021/05/19 09:47:45;;;;;;;14.73;7.03;;;16.70;73.90;;;;;;5058578;28;20028;-60
2021/05/19 09:50:16;;;;;;;17.63;10.88;;;16.70;74.10;;;;;;5060899;28;20032;-61
2021/05/19 09:53:02;;;;;;;15.02;8.80;;;16.60;73.90;;;;;;5054909;28;20094;-61
2021/05/19 09:55:27;;;;;;;13.70;9.18;;;16.70;74.30;;;;;;5066569;28;20093;-61
2021/05/19 09:57:53;;;;;;;15.30;10.70;;;16.60;74.20;;;;;;5053420;28;20037;-61
2021/05/19 10:00:25;;;;;;;10.93;6.50;;;16.70;74.00;;;;;;5066150;28;20032;-60
2021/05/19 10:02:52;;;;;;;20.00;11.57;;;16.60;74.40;;;;;;5071131;28;20036;-60
2021/05/19 10:05:22;;;;;;;17.02;9.43;;;16.60;74.00;;;;;;5071855;28;20028;-61
2021/05/19 10:07:48;;;;;;;18.58;10.80;;;16.60;74.20;;;;;;5070906;28;20032;-61
2021/05/19 10:10:14;;;;;;;15.52;9.10;;;16.70;74.30;;;;;;5064048;28;20039;-60
2021/05/19 10:12:41;;;;;;;16.60;10.43;;;16.70;74.20;;;;;;5069016;28;20052;-61
2021/05/19 10:15:14;;;;;;;19.05;10.02;;;16.70;73.70;;;;;;5065281;28;20029;-62
2021/05/19 10:17:44;;;;;;;9.98;5.93;;;16.70;73.90;;;;;;5058763;28;20029;-62
2021/05/19 10:20:14;;;;;;;15.38;8.40;;;16.80;74.30;;;;;;5070998;28;20146;-62
2021/05/19 10:22:48;;;;;;;20.65;9.25;;;16.80;74.10;;;;;;5071272;28;20051;-62
2021/05/19 10:25:42;;;;;;;16.75;10.27;;;16.80;74.00;;;;;;5071843;28;20078;-60
2021/05/19 10:28:12;;;;;;;10.27;6.10;;;16.90;74.00;;;;;;5071058;28;20036;-61
2021/05/19 10:30:39;;;;;;;13.43;8.45;;;16.80;74.10;;;;;;5053971;28;20082;-60
2021/05/19 10:33:07;;;;;;;14.98;8.15;;;16.90;73.80;;;;;;5071628;28;20383;-60
2021/05/19 10:35:35;;;;;;;10.82;5.47;;;16.80;73.50;;;;;;5059206;28;20021;-60
2021/05/19 10:38:22;;;;;;;9.40;5.07;;;16.90;73.40;;;;;;5063437;28;20387;-60
2021/05/19 10:40:52;;;;;;;16.35;4.82;;;16.90;73.20;;;;;;5066850;28;20040;-61
2021/05/19 10:43:18;;;;;;;6.00;3.60;;;16.90;72.40;;;;;;5065053;28;20041;-61
2021/05/19 10:46:00;;;;;;;7.93;5.10;;;16.90;72.00;;;;;;5061291;28;20107;-61
2021/05/19 10:48:33;;;;;;;7.95;4.20;;;16.90;72.50;;;;;;5058660;28;20037;-61
2021/05/19 10:51:21;;;;;;;;;;;16.90;72.20;;;;;;5062468;28;20463;-64
2021/05/19 10:59:29;;;;;;;5.63;2.20;;;17.00;72.00;;;;;;5061117;28;20025;-60
2021/05/19 11:01:56;;;;;;;1.00;0.73;;;17.00;71.50;;;;;;5067334;28;20455;-60
2021/05/19 11:04:45;;;;;;;0.50;0.40;;;16.90;70.10;;;;;;5067440;28;20075;-60
2021/05/19 11:07:11;;;;;;;1.17;1.02;;;16.90;70.90;;;;;;5065457;28;20072;-60
2021/05/19 11:09:40;;;;;;;0.90;0.80;;;16.80;67.50;;;;;;5069642;28;20041;-60
2021/05/19 11:12:25;;;;;;;1.45;1.00;;;16.80;67.20;;;;;;5066898;28;20029;-60
2021/05/19 11:15:16;;;;;;;2.88;1.70;;;16.80;68.00;;;;;;5061109;28;20460;-60
2021/05/19 11:20:09;;;;;;;2.03;0.95;;;16.90;67.50;;;;;;5074390;28;20074;-60
2021/05/19 11:22:35;;;;;;;1.05;0.95;;;17.00;67.60;;;;;;5074448;28;20544;-60
2021/05/19 11:25:03;;;;;;;1.10;1.00;;;17.00;66.10;;;;;;5073362;28;20056;-60
2021/05/19 11:27:32;;;;;;;4.88;1.38;;;17.00;66.50;;;;;;5074676;28;20033;-60
2021/05/19 11:30:00;;;;;;;4.10;2.63;;;17.10;67.00;;;;;;5074150;28;20107;-60
2021/05/19 11:32:34;;;;;;;3.67;2.30;;;17.20;65.90;;;;;;5073717;28;20604;-60
2021/05/19 11:35:20;;;;;;;3.42;2.35;;;17.20;66.10;;;;;;5073230;28;20036;-61
2021/05/19 11:38:05;;;;;;;8.35;4.00;;;17.30;67.40;;;;;;5073819;28;20036;-62
2021/05/19 11:40:40;;;;;;;7.90;3.80;;;17.30;65.70;;;;;;5063495;28;20060;-62
2021/05/19 11:43:06;;;;;;;10.40;5.15;;;17.30;66.40;;;;;;5068128;28;20424;-61
2021/05/19 11:45:32;;;;;;;13.73;5.95;;;17.40;67.00;;;;;;5060656;28;20285;-62
2021/05/19 11:47:58;;;;;;;9.45;4.20;;;17.50;67.00;;;;;;5059466;28;20039;-61
2021/05/19 11:50:25;;;;;;;9.90;5.10;;;17.40;66.90;;;;;;5058944;28;20029;-61
2021/05/19 11:53:00;;;;;;;8.43;4.53;;;17.50;67.20;;;;;;5060474;28;20033;-68
2021/05/19 11:56:01;;;;;;;5.85;4.07;;;17.60;66.70;;;;;;5058909;28;20033;-61
2021/05/19 11:58:29;;;;;;;8.05;3.92;;;17.60;67.10;;;;;;5056942;28;20044;-61
2021/05/19 12:01:00;;;;;;;3.72;2.10;;;17.60;68.50;;;;;;5060964;28;20024;-63
2021/05/19 12:03:31;;;;;;;6.15;2.80;;;17.70;69.80;;;;;;5072062;28;20135;-61
2021/05/19 12:06:04;;;;;;;5.57;2.97;;;17.60;69.70;;;;;;5073589;28;20103;-61
2021/05/19 12:08:30;;;;;;;5.15;2.63;;;17.50;69.30;;;;;;5060120;28;20029;-61
2021/05/19 12:11:05;;;;;;;4.20;2.90;;;17.50;70.00;;;;;;5067749;28;20578;-61
2021/05/19 12:13:38;;;;;;;4.82;2.55;;;17.60;70.30;;;;;;5065846;28;20087;-62
2021/05/19 12:16:16;;;;;;;3.45;1.58;;;17.50;70.80;;;;;;5066155;28;20029;-62
2021/05/19 12:19:00;;;;;;;3.33;1.17;;;17.60;71.10;;;;;;5055974;28;20044;-62
2021/05/19 12:21:27;;;;;;;2.03;1.45;;;17.50;70.70;;;;;;5053620;28;20048;-63
2021/05/19 12:23:56;;;;;;;2.65;1.05;;;17.40;69.60;;;;;;5053723;28;20033;-63
2021/05/19 12:26:25;;;;;;;3.55;2.30;;;17.30;69.60;;;;;;5053218;28;20060;-63
2021/05/19 12:28:51;;;;;;;4.65;2.75;;;17.30;69.50;;;;;;5055377;28;20045;-63
2021/05/19 12:31:34;;;;;;;6.30;3.90;;;17.30;69.60;;;;;;5052213;28;20025;-64
2021/05/19 12:34:12;;;;;;;1.58;1.23;;;17.30;70.10;;;;;;5051619;28;20025;-64
2021/05/19 12:36:40;;;;;;;4.68;1.38;;;17.30;70.80;;;;;;5053179;28;20049;-64
2021/05/19 12:39:12;;;;;;;4.25;2.13;;;17.20;70.40;;;;;;5053564;28;20056;-64
2021/05/19 12:41:41;;;;;;;0.80;0.77;;;17.20;70.30;;;;;;5055455;28;20041;-65
2021/05/19 12:44:07;;;;;;;5.57;1.60;;;17.20;70.60;;;;;;5053621;28;20032;-64
2021/05/19 12:46:33;;;;;;;1.50;1.40;;;17.10;70.20;;;;;;5054518;28;20428;-62
2021/05/19 12:49:06;;;;;;;4.72;1.50;;;17.10;70.30;;;;;;5057812;28;20025;-71
2021/05/19 12:51:47;;;;;;;1.30;1.10;;;17.00;70.70;;;;;;5058864;28;20154;-61
2021/05/19 12:54:18;;;;;;;2.60;1.88;;;17.00;70.00;;;;;;5057996;28;20027;-68
2021/05/19 12:56:44;;;;;;;2.30;1.58;;;17.00;70.00;;;;;;5060590;28;20039;-61
2021/05/19 12:59:10;;;;;;;2.47;1.55;;;16.90;70.40;;;;;;5056215;28;20033;-64